createdAt,value
2019-02-12T00:01:28.273Z,93.10
2019-02-12T00:04:01.172Z,94.70
2019-02-12T00:06:33.474Z,95.80
2019-02-12T00:09:07.958Z,95.80
2019-02-12T00:11:40.439Z,98.10
2019-02-12T00:14:13.211Z,98.80
2019-02-12T00:16:46.395Z,99.90
2019-02-12T00:19:19.431Z,99.90
2019-02-12T00:21:52.372Z,99.90
2019-02-12T00:24:25.225Z,99.90
2019-02-12T00:26:57.638Z,99.40
2019-02-12T00:29:30.537Z,99.90
2019-02-12T00:32:03.018Z,99.90
2019-02-12T00:34:36.678Z,99.90
2019-02-12T00:37:09.599Z,99.90
2019-02-12T00:39:42.380Z,99.90
2019-02-12T00:42:15.347Z,99.90
2019-02-12T00:44:47.978Z,99.90
2019-02-12T00:47:21.470Z,99.30
2019-02-12T00:49:54.013Z,99.90
2019-02-12T00:52:27.140Z,99.90
2019-02-12T00:55:00.738Z,99.90
2019-02-12T00:57:33.729Z,99.90
2019-02-12T01:00:07.502Z,99.90
2019-02-12T01:02:40.755Z,99.90
2019-02-12T01:05:13.688Z,99.90
2019-02-12T01:07:46.281Z,99.90
2019-02-12T01:10:18.898Z,99.90
2019-02-12T01:12:52.281Z,98.70
2019-02-12T01:15:25.641Z,96.90
2019-02-12T01:17:58.213Z,95.90
2019-02-12T01:20:30.873Z,95.80
2019-02-12T01:23:03.695Z,95.90
2019-02-12T01:25:37.506Z,96.40
2019-02-12T01:28:10.359Z,96.30
2019-02-12T01:30:43.431Z,96.10
2019-02-12T01:33:17.079Z,97.60
2019-02-12T01:35:49.660Z,97.90
2019-02-12T01:38:22.509Z,98.70
2019-02-12T01:40:55.731Z,98.90
2019-02-12T01:43:29.503Z,99.20
2019-02-12T01:46:02.492Z,98.40
2019-02-12T01:48:35.195Z,98.30
2019-02-12T01:51:07.961Z,98.10
2019-02-12T01:53:40.864Z,96.90
2019-02-12T01:56:14.137Z,95.70
2019-02-12T01:58:47.332Z,93.60
2019-02-12T02:01:19.915Z,92.00
2019-02-12T02:03:52.575Z,91.20
2019-02-12T02:06:25.532Z,90.60
2019-02-12T02:08:58.705Z,87.70
2019-02-12T02:11:31.620Z,85.10
2019-02-12T02:14:04.207Z,82.80
2019-02-12T02:16:38.573Z,80.70
2019-02-12T02:19:11.467Z,79.20
2019-02-12T02:21:44.407Z,76.90
2019-02-12T02:24:18.706Z,76.20
2019-02-12T02:26:51.498Z,75.60
2019-02-12T02:29:24.424Z,75.00
2019-02-12T02:31:58.118Z,73.00
2019-02-12T02:34:31.943Z,73.80
2019-02-12T02:37:04.695Z,74.20
2019-02-12T02:39:37.245Z,75.00
2019-02-12T02:42:10.468Z,76.60
2019-02-12T02:44:43.462Z,76.00
2019-02-12T02:47:16.252Z,75.20
2019-02-12T02:49:49.200Z,74.80
2019-02-12T02:52:22.199Z,73.50
2019-02-12T02:54:54.805Z,72.90
2019-02-12T02:57:27.750Z,71.20
2019-02-12T03:00:00.515Z,69.80
2019-02-12T03:02:33.340Z,69.30
2019-02-12T03:05:06.862Z,68.80
2019-02-12T03:07:39.705Z,68.20
2019-02-12T03:10:13.111Z,68.20
2019-02-12T03:12:46.216Z,68.50
2019-02-12T03:15:19.276Z,68.70
2019-02-12T03:17:52.394Z,68.20
2019-02-12T03:20:25.007Z,67.90
2019-02-12T03:22:57.673Z,67.50
2019-02-12T03:25:30.626Z,67.40
2019-02-12T03:28:03.558Z,66.80
2019-02-12T03:30:36.708Z,66.80
2019-02-12T03:33:09.172Z,66.50
2019-02-12T03:35:42.027Z,65.70
2019-02-12T03:38:14.551Z,65.80
2019-02-12T03:40:47.712Z,65.70
2019-02-12T03:43:24.098Z,66.20
2019-02-12T03:45:57.205Z,66.00
2019-02-12T03:48:29.854Z,66.40
2019-02-12T03:51:02.695Z,65.40
2019-02-12T03:53:35.753Z,65.30
2019-02-12T03:56:08.737Z,65.20
2019-02-12T03:58:41.600Z,65.10
2019-02-12T04:01:14.499Z,65.30
2019-02-12T04:03:48.757Z,65.40
2019-02-12T04:06:21.362Z,64.90
2019-02-12T04:08:53.833Z,64.70
2019-02-12T04:11:26.486Z,64.70
2019-02-12T04:13:59.543Z,64.30
2019-02-12T04:16:32.018Z,63.90
2019-02-12T04:19:04.677Z,63.10
2019-02-12T04:21:37.465Z,62.70
2019-02-12T04:24:09.925Z,62.40
2019-02-12T04:26:42.600Z,62.10
2019-02-12T04:29:15.292Z,61.90
2019-02-12T04:31:47.937Z,62.10
2019-02-12T04:34:20.507Z,62.40
2019-02-12T04:36:53.220Z,62.70
2019-02-12T04:39:25.575Z,62.90
2019-02-12T04:41:58.368Z,63.30
2019-02-12T04:44:31.037Z,64.10
2019-02-12T04:47:03.753Z,64.80
2019-02-12T04:49:36.266Z,65.60
2019-02-12T04:52:09.124Z,66.40
2019-02-12T04:54:41.822Z,67.40
2019-02-12T04:57:14.285Z,68.30
2019-02-12T04:59:47.132Z,68.80
2019-02-12T05:02:20.119Z,69.60
2019-02-12T05:04:52.512Z,70.50
2019-02-12T05:07:25.196Z,70.80
2019-02-12T05:09:58.946Z,71.50
2019-02-12T05:12:31.939Z,73.00
2019-02-12T05:15:04.640Z,73.40
2019-02-12T05:17:37.109Z,74.40
2019-02-12T05:20:11.817Z,75.30
2019-02-12T05:22:44.625Z,75.90
2019-02-12T05:25:17.303Z,77.10
2019-02-12T05:27:49.685Z,78.80
2019-02-12T05:30:22.378Z,80.00
2019-02-12T05:32:55.401Z,80.00
2019-02-12T05:35:28.529Z,79.40
2019-02-12T05:38:01.117Z,78.80
2019-02-12T05:40:33.515Z,79.20
2019-02-12T05:43:06.780Z,80.60
2019-02-12T05:45:41.480Z,81.70
2019-02-12T05:48:13.862Z,82.30
2019-02-12T05:50:46.959Z,82.40
2019-02-12T05:53:19.403Z,82.80
2019-02-12T05:55:52.410Z,82.80
2019-02-12T05:58:24.858Z,83.60
2019-02-12T06:00:57.345Z,84.50
2019-02-12T06:03:30.170Z,85.70
2019-02-12T06:06:02.986Z,88.20
2019-02-12T06:08:36.126Z,88.10
2019-02-12T06:11:08.725Z,87.50
2019-02-12T06:13:41.856Z,87.30
2019-02-12T06:16:15.485Z,87.60
2019-02-12T06:18:48.377Z,89.20
2019-02-12T06:21:21.212Z,88.90
2019-02-12T06:23:53.408Z,90.10
2019-02-12T06:26:26.370Z,91.40
2019-02-12T06:28:59.525Z,91.60
2019-02-12T06:31:32.296Z,92.00
2019-02-12T06:34:04.683Z,93.30
2019-02-12T06:36:38.021Z,93.00
2019-02-12T06:39:10.849Z,94.00
2019-02-12T06:41:44.146Z,95.00
2019-02-12T06:44:17.030Z,94.40
2019-02-12T06:46:50.774Z,94.50
2019-02-12T06:49:23.863Z,95.80
2019-02-12T06:51:56.917Z,95.90
2019-02-12T06:54:29.325Z,95.90
2019-02-12T06:57:02.489Z,95.50
2019-02-12T06:59:35.205Z,95.50
2019-02-12T07:02:41.973Z,96.20
2019-02-12T07:05:14.275Z,96.50
2019-02-12T07:08:16.946Z,96.60
2019-02-12T07:10:49.669Z,96.10
2019-02-12T07:13:42.544Z,96.30
2019-02-12T07:16:45.133Z,96.00
2019-02-12T07:20:04.020Z,95.60
2019-02-12T07:23:21.335Z,95.20
2019-02-12T07:26:48.394Z,95.60
2019-02-12T07:29:44.064Z,94.90
2019-02-12T07:32:50.890Z,94.80
2019-02-12T07:36:14.825Z,95.60
2019-02-12T07:39:23.052Z,94.50
2019-02-12T07:42:28.703Z,95.00
2019-02-12T07:45:28.580Z,94.70
2019-02-12T07:48:52.473Z,95.40
2019-02-12T07:51:50.365Z,94.80
2019-02-12T07:54:34.710Z,94.70
2019-02-12T07:57:47.657Z,95.30
2019-02-12T08:01:08.963Z,94.40
2019-02-12T08:04:16.874Z,93.90
2019-02-12T08:07:09.242Z,93.20
2019-02-12T08:10:06.357Z,91.90
2019-02-12T08:13:43.766Z,90.30
2019-02-12T08:16:42.042Z,89.60
2019-02-12T08:19:28.547Z,88.80
2019-02-12T08:22:33.487Z,88.50
2019-02-12T08:25:37.598Z,87.40
2019-02-12T08:29:05.634Z,87.00
2019-02-12T08:32:11.176Z,87.00
2019-02-12T08:35:22.201Z,87.40
2019-02-12T08:38:32.002Z,87.00
2019-02-12T08:41:40.411Z,87.60
2019-02-12T08:44:56.579Z,88.00
2019-02-12T08:47:40.809Z,87.30
2019-02-12T08:50:44.530Z,86.60
2019-02-12T08:54:07.693Z,85.60
2019-02-12T08:57:17.130Z,84.40
2019-02-12T09:00:22.892Z,84.80
2019-02-12T09:03:37.870Z,83.90
2019-02-12T09:06:37.057Z,83.80
2019-02-12T09:09:54.899Z,83.10
2019-02-12T09:12:49.875Z,82.60
2019-02-12T09:16:09.482Z,82.70
2019-02-12T09:19:09.376Z,83.30
2019-02-12T09:22:23.116Z,82.40
2019-02-12T09:25:11.489Z,82.40
2019-02-12T09:28:03.901Z,83.50
2019-02-12T09:31:07.192Z,84.30
2019-02-12T09:34:10.640Z,85.20
2019-02-12T09:37:07.042Z,85.40
2019-02-12T09:40:00.409Z,86.30
2019-02-12T09:43:24.292Z,86.20
2019-02-12T09:46:24.234Z,87.00
2019-02-12T09:49:22.639Z,87.50
2019-02-12T09:52:41.426Z,87.90
2019-02-12T09:55:56.454Z,88.70
2019-02-12T09:59:03.232Z,88.90
2019-02-12T10:02:10.456Z,89.90
2019-02-12T10:05:03.696Z,90.10
2019-02-12T10:08:18.833Z,89.90
2019-02-12T10:11:37.402Z,90.20
2019-02-12T10:14:38.249Z,90.00
2019-02-12T10:17:30.425Z,89.10
2019-02-12T10:20:29.180Z,88.20
2019-02-12T10:23:31.911Z,86.70
2019-02-12T10:26:11.712Z,86.20
2019-02-12T10:29:16.273Z,85.60
2019-02-12T10:31:46.097Z,85.20
2019-02-12T10:34:18.642Z,84.00
2019-02-12T10:36:51.255Z,83.30
2019-02-12T10:39:24.084Z,82.70
2019-02-12T10:41:57.084Z,82.60
2019-02-12T10:44:29.783Z,82.80
2019-02-12T10:47:02.357Z,83.50
2019-02-12T10:49:35.061Z,83.50
2019-02-12T10:52:25.501Z,83.20
2019-02-12T10:55:02.356Z,84.00
2019-02-12T10:57:35.056Z,83.20
2019-02-12T11:00:11.559Z,83.20
2019-02-12T11:02:43.852Z,82.80
2019-02-12T11:05:16.884Z,82.00
2019-02-12T11:07:49.368Z,81.90
2019-02-12T11:10:22.455Z,81.20
2019-02-12T11:12:55.358Z,79.40
2019-02-12T11:15:27.950Z,79.20
2019-02-12T11:18:00.804Z,78.80
2019-02-12T11:20:33.489Z,78.50
2019-02-12T11:23:06.261Z,78.10
2019-02-12T11:25:39.252Z,78.60
2019-02-12T11:28:12.361Z,77.70
2019-02-12T11:30:44.899Z,78.00
2019-02-12T11:33:17.547Z,76.80
2019-02-12T11:35:50.424Z,76.30
2019-02-12T11:38:22.772Z,76.20
2019-02-12T11:40:55.676Z,76.80
2019-02-12T11:43:28.424Z,76.90
2019-02-12T11:46:00.782Z,77.50
2019-02-12T11:48:33.358Z,76.80
2019-02-12T11:51:05.952Z,77.80
2019-02-12T11:53:38.511Z,77.90
2019-02-12T11:56:10.949Z,76.90
2019-02-12T11:58:44.025Z,77.20
2019-02-12T12:01:22.932Z,76.70
2019-02-12T12:03:55.336Z,76.20
2019-02-12T12:06:27.533Z,76.90
2019-02-12T12:09:00.377Z,76.40
2019-02-12T12:11:33.092Z,75.20
2019-02-12T12:14:05.949Z,75.10
2019-02-12T12:16:38.491Z,74.60
2019-02-12T12:19:11.515Z,74.90
2019-02-12T12:21:45.434Z,74.90
2019-02-12T12:24:17.739Z,74.30
2019-02-12T12:26:50.043Z,74.00
2019-02-12T12:29:22.965Z,74.20
2019-02-12T12:31:55.170Z,74.00
2019-02-12T12:34:27.773Z,74.10
2019-02-12T12:37:00.307Z,73.70
2019-02-12T12:39:33.616Z,73.00
2019-02-12T12:42:06.611Z,73.00
2019-02-12T12:44:39.129Z,73.50
2019-02-12T12:47:13.053Z,72.40
2019-02-12T12:49:46.083Z,71.40
2019-02-12T12:52:18.611Z,71.90
2019-02-12T12:54:59.429Z,71.60
2019-02-12T12:57:29.118Z,71.60
2019-02-12T13:00:02.135Z,69.30
2019-02-12T13:02:35.113Z,70.30
2019-02-12T13:05:08.734Z,68.70
2019-02-12T13:07:41.326Z,68.40
2019-02-12T13:10:15.484Z,68.20
2019-02-12T13:12:48.885Z,68.80
2019-02-12T13:15:21.628Z,68.80
2019-02-12T13:17:54.408Z,68.20
2019-02-12T13:20:26.800Z,68.60
2019-02-12T13:22:59.518Z,68.30
2019-02-12T13:25:32.507Z,68.30
2019-02-12T13:28:07.381Z,67.10
2019-02-12T13:30:39.816Z,66.80
2019-02-12T13:33:12.482Z,66.70
2019-02-12T13:35:45.117Z,66.40
2019-02-12T13:38:17.340Z,65.30
2019-02-12T13:40:49.922Z,64.60
2019-02-12T13:43:22.979Z,65.40
2019-02-12T13:45:55.255Z,64.40
2019-02-12T13:48:28.948Z,64.90
2019-02-12T13:51:01.986Z,64.60
2019-02-12T13:53:34.395Z,64.50
2019-02-12T13:56:09.175Z,64.70
2019-02-12T13:58:42.039Z,63.80
2019-02-12T14:01:14.539Z,63.80
2019-02-12T14:03:46.998Z,64.10
2019-02-12T14:06:19.423Z,62.80
2019-02-12T14:08:52.236Z,63.30
2019-02-12T14:11:25.456Z,62.30
2019-02-12T14:13:58.424Z,61.90
2019-02-12T14:16:31.268Z,61.10
2019-02-12T14:19:04.205Z,61.80
2019-02-12T14:21:36.974Z,61.40
2019-02-12T14:24:10.078Z,61.80
2019-02-12T14:26:44.918Z,63.00
2019-02-12T14:29:17.524Z,61.90
2019-02-12T14:31:53.002Z,62.00
2019-02-12T14:34:24.587Z,62.00
2019-02-12T14:36:56.970Z,61.60
2019-02-12T14:39:32.712Z,60.40
2019-02-12T14:42:05.952Z,61.70
2019-02-12T14:44:39.400Z,62.30
2019-02-12T14:47:12.528Z,62.00
2019-02-12T14:49:45.444Z,60.80
2019-02-12T14:52:18.027Z,62.50
2019-02-12T14:54:51.137Z,61.20
2019-02-12T14:57:23.921Z,61.50
2019-02-12T14:59:57.066Z,62.70
2019-02-12T15:02:29.571Z,62.20
2019-02-12T15:05:02.731Z,61.00
2019-02-12T15:07:35.416Z,61.00
2019-02-12T15:10:08.802Z,61.60
2019-02-12T15:12:42.002Z,62.80
2019-02-12T15:15:14.450Z,61.90
2019-02-12T15:17:47.417Z,62.40
2019-02-12T15:20:19.973Z,62.10
2019-02-12T15:22:52.973Z,61.60
2019-02-12T15:25:25.967Z,62.00
2019-02-12T15:27:58.640Z,63.40
2019-02-12T15:30:31.113Z,63.90
2019-02-12T15:33:04.238Z,62.90
2019-02-12T15:35:37.298Z,61.80
2019-02-12T15:38:10.178Z,61.30
2019-02-12T15:40:42.753Z,61.00
2019-02-12T15:43:15.079Z,60.80
2019-02-12T15:45:47.722Z,59.70
2019-02-12T15:48:20.847Z,60.20
2019-02-12T15:50:53.550Z,61.10
2019-02-12T15:53:26.199Z,61.70
2019-02-12T15:55:58.804Z,61.20
2019-02-12T15:58:31.924Z,60.00
2019-02-12T16:01:06.085Z,60.00
2019-02-12T16:03:39.102Z,60.70
2019-02-12T16:06:11.893Z,62.50
2019-02-12T16:08:44.608Z,60.60
2019-02-12T16:11:18.998Z,59.60
2019-02-12T16:13:52.180Z,59.40
2019-02-12T16:16:25.289Z,60.00
2019-02-12T16:18:57.830Z,59.70
2019-02-12T16:21:30.479Z,59.60
2019-02-12T16:24:02.749Z,59.60
2019-02-12T16:26:35.212Z,59.70
2019-02-12T16:29:08.072Z,60.00
2019-02-12T16:31:40.952Z,59.70
2019-02-12T16:34:13.747Z,59.40
2019-02-12T16:36:46.347Z,58.80
2019-02-12T16:39:19.129Z,58.70
2019-02-12T16:41:51.472Z,58.60
2019-02-12T16:44:24.013Z,58.20
2019-02-12T16:46:56.944Z,58.00
2019-02-12T16:49:29.438Z,59.10
2019-02-12T16:52:02.300Z,58.00
2019-02-12T16:54:34.927Z,57.90
2019-02-12T16:57:07.719Z,59.20
2019-02-12T16:59:41.513Z,57.60
2019-02-12T17:02:13.739Z,59.40
2019-02-12T17:04:46.618Z,58.20
2019-02-12T17:07:18.973Z,58.70
2019-02-12T17:09:52.569Z,59.60
2019-02-12T17:12:25.275Z,59.70
2019-02-12T17:14:57.525Z,59.60
2019-02-12T17:17:30.007Z,60.00
2019-02-12T17:20:03.175Z,59.90
2019-02-12T17:22:35.892Z,59.30
2019-02-12T17:25:09.725Z,58.90
2019-02-12T17:27:42.729Z,59.30
2019-02-12T17:30:16.278Z,59.90
2019-02-12T17:32:48.972Z,59.90
2019-02-12T17:35:21.442Z,59.80
2019-02-12T17:37:54.109Z,59.90
2019-02-12T17:40:26.710Z,59.70
2019-02-12T17:42:59.564Z,59.80
2019-02-12T17:45:32.266Z,59.20
2019-02-12T17:48:05.172Z,59.20
2019-02-12T17:50:37.841Z,60.60
2019-02-12T17:53:10.712Z,60.30
2019-02-12T17:55:43.794Z,59.30
2019-02-12T17:58:16.704Z,58.30
2019-02-12T18:00:50.116Z,60.50
2019-02-12T18:03:22.522Z,60.90
2019-02-12T18:05:55.472Z,61.30
2019-02-12T18:08:27.707Z,61.10
2019-02-12T18:11:00.487Z,61.00
2019-02-12T18:13:32.915Z,61.00
2019-02-12T18:16:05.815Z,60.00
2019-02-12T18:18:38.349Z,60.40
2019-02-12T18:21:11.316Z,60.80
2019-02-12T18:23:44.337Z,59.40
2019-02-12T18:26:16.851Z,60.00
2019-02-12T18:28:51.839Z,60.00
2019-02-12T18:31:25.775Z,60.60
2019-02-12T18:33:58.879Z,59.70
2019-02-12T18:36:31.585Z,60.40
2019-02-12T18:39:05.056Z,60.10
2019-02-12T18:41:37.584Z,60.00
2019-02-12T18:44:11.030Z,60.50
2019-02-12T18:46:43.473Z,60.40
2019-02-12T18:49:16.570Z,60.80
2019-02-12T18:51:49.436Z,60.30
2019-02-12T18:54:21.862Z,61.70
2019-02-12T18:56:55.193Z,61.80
2019-02-12T18:59:27.740Z,62.30
2019-02-12T19:02:00.341Z,62.60
2019-02-12T19:04:32.780Z,62.80
2019-02-12T19:07:06.339Z,64.40
2019-02-12T19:09:38.962Z,63.60
2019-02-12T19:12:11.520Z,64.50
2019-02-12T19:14:43.987Z,63.90
2019-02-12T19:17:17.537Z,64.20
2019-02-12T19:19:50.015Z,64.00
2019-02-12T19:22:22.698Z,65.10
2019-02-12T19:24:55.516Z,64.60
2019-02-12T19:27:28.193Z,63.40
2019-02-12T19:30:00.511Z,64.30
2019-02-12T19:32:33.060Z,64.40
2019-02-12T19:35:06.267Z,64.50
2019-02-12T19:37:39.565Z,64.30
2019-02-12T19:40:12.013Z,64.20
2019-02-12T19:42:44.572Z,64.00
2019-02-12T19:45:18.022Z,64.10
2019-02-12T19:47:50.942Z,64.80
2019-02-12T19:50:23.695Z,64.30
2019-02-12T19:52:56.809Z,65.70
2019-02-12T19:55:29.559Z,65.50
2019-02-12T19:58:02.029Z,65.80
2019-02-12T20:00:34.870Z,66.50
2019-02-12T20:03:07.601Z,66.10
2019-02-12T20:05:39.923Z,66.00
2019-02-12T20:08:12.668Z,66.00
2019-02-12T20:10:46.116Z,65.90
2019-02-12T20:13:18.741Z,67.40
2019-02-12T20:15:51.878Z,67.50
2019-02-12T20:18:24.672Z,67.10
2019-02-12T20:20:57.382Z,67.20
2019-02-12T20:23:30.137Z,68.50
2019-02-12T20:26:02.645Z,67.50
2019-02-12T20:28:35.369Z,67.30
2019-02-12T20:31:07.836Z,66.70
2019-02-12T20:33:41.318Z,67.30
2019-02-12T20:36:14.086Z,67.60
2019-02-12T20:38:47.109Z,67.10
2019-02-12T20:41:19.726Z,67.80
2019-02-12T20:43:54.423Z,68.10
2019-02-12T20:46:27.359Z,68.00
2019-02-12T20:48:59.657Z,67.90
2019-02-12T20:51:32.327Z,68.00
2019-02-12T20:54:05.004Z,67.20
2019-02-12T20:56:37.364Z,67.30
2019-02-12T20:59:10.006Z,68.10
2019-02-12T21:01:46.494Z,67.30
2019-02-12T21:04:19.141Z,67.60
2019-02-12T21:06:52.232Z,68.00
2019-02-12T21:09:24.828Z,68.60
2019-02-12T21:11:58.272Z,69.60
2019-02-12T21:14:31.446Z,70.30
2019-02-12T21:17:03.872Z,71.40
2019-02-12T21:19:36.801Z,71.10
2019-02-12T21:22:09.685Z,69.50
2019-02-12T21:24:42.596Z,69.30
2019-02-12T21:27:23.120Z,68.20
2019-02-12T21:29:52.583Z,69.20
2019-02-12T21:32:25.843Z,69.80
2019-02-12T21:34:58.268Z,69.30
2019-02-12T21:37:31.280Z,69.90
2019-02-12T21:40:03.604Z,70.20
2019-02-12T21:42:36.408Z,70.80
2019-02-12T21:45:09.881Z,71.00
2019-02-12T21:47:43.572Z,75.50
2019-02-12T21:50:16.986Z,79.60
2019-02-12T21:52:49.326Z,84.80
2019-02-12T21:55:21.944Z,90.20
2019-02-12T21:57:54.723Z,92.60
2019-02-12T22:00:27.890Z,94.30
2019-02-12T22:03:03.430Z,96.00
2019-02-12T22:05:36.397Z,97.90
2019-02-12T22:08:09.487Z,99.20
2019-02-12T22:10:46.388Z,99.90
2019-02-12T22:13:16.196Z,99.90
2019-02-12T22:15:48.607Z,99.90
2019-02-12T22:18:21.227Z,99.90
2019-02-12T22:20:53.445Z,99.90
2019-02-12T22:23:26.570Z,99.90
2019-02-12T22:25:59.035Z,99.90
2019-02-12T22:28:31.963Z,99.90
2019-02-12T22:31:04.789Z,99.90
2019-02-12T22:33:37.323Z,99.90
2019-02-12T22:36:09.946Z,99.90
2019-02-12T22:38:43.100Z,99.90
2019-02-12T22:41:16.691Z,99.90
2019-02-12T22:43:49.157Z,99.90
2019-02-12T22:46:21.829Z,99.90
2019-02-12T22:48:54.832Z,99.90
2019-02-12T22:51:27.441Z,99.90
2019-02-12T22:54:00.259Z,99.90
2019-02-12T22:56:32.998Z,99.90
2019-02-12T22:59:05.837Z,99.90
2019-02-12T23:01:39.910Z,99.90
2019-02-12T23:04:12.719Z,99.90
2019-02-12T23:06:45.313Z,99.90
2019-02-12T23:09:19.230Z,99.90
2019-02-12T23:11:52.723Z,99.90
2019-02-12T23:14:25.158Z,99.90
2019-02-12T23:16:57.809Z,99.90
2019-02-12T23:19:30.550Z,99.90
2019-02-12T23:22:03.244Z,99.90
2019-02-12T23:24:35.934Z,99.90
2019-02-12T23:27:08.454Z,99.90
2019-02-12T23:29:41.543Z,99.90
2019-02-12T23:32:14.322Z,99.90
2019-02-12T23:34:47.900Z,99.90
2019-02-12T23:37:21.083Z,99.90
2019-02-12T23:39:54.014Z,99.90
2019-02-12T23:42:26.463Z,99.90
2019-02-12T23:44:59.751Z,99.90
2019-02-12T23:47:32.927Z,99.90
2019-02-12T23:50:05.434Z,99.90
2019-02-12T23:52:38.416Z,99.90
2019-02-12T23:55:11.592Z,99.90
2019-02-12T23:57:44.370Z,99.90
